Time;durP1;ratioP1;P1;durP2;ratioP2;P2;SDS_P1;SDS_P2;PMS_P1;PMS_P2;Temp;Humidity;BMP_temperature;BMP_pressure;BME280_temperature;BME280_humidity;BME280_pressure;Samples;Min_cycle;Max_cycle;Signal;HPM_P1;HPM_P2
2022/10/06 00:01:28;;;;;;;6.58;2.70;;;;;;;12.05;78.03;101105.11;1637506;87;21098;-68
2022/10/06 00:03:57;;;;;;;4.87;2.42;;;;;;;12.05;77.93;101094.98;1656379;85;21141;-68
2022/10/06 00:06:28;;;;;;;9.45;2.77;;;;;;;12.08;77.90;101104.73;1652298;85;21541;-67
2022/10/06 00:08:58;;;;;;;5.83;2.47;;;;;;;12.07;77.83;101103.03;1638054;87;21114;-67
2022/10/06 00:11:27;;;;;;;6.75;2.60;;;;;;;12.09;77.56;101100.94;1644639;86;21090;-69
2022/10/06 00:13:56;;;;;;;7.70;2.90;;;;;;;12.11;77.50;101098.86;1646035;86;21087;-68
2022/10/06 00:16:26;;;;;;;7.85;2.77;;;;;;;12.11;77.66;101098.86;1648729;86;21072;-68
2022/10/06 00:18:57;;;;;;;6.15;2.55;;;;;;;12.12;77.79;101100.56;1650051;86;21127;-67
2022/10/06 00:21:27;;;;;;;6.70;2.72;;;;;;;12.13;77.66;101103.64;1627622;86;21472;-68
2022/10/06 00:23:57;;;;;;;6.42;2.25;;;;;;;12.13;77.66;101099.52;1638009;86;21087;-68
2022/10/06 00:26:27;;;;;;;6.15;2.70;;;;;;;12.15;77.51;101097.44;1639260;86;21557;-68
2022/10/06 00:28:57;;;;;;;7.97;2.75;;;;;;;12.16;77.37;101099.14;1637966;86;21499;-68
2022/10/06 00:31:29;;;;;;;8.58;2.62;;;;;;;12.16;77.16;101094.16;1641326;86;21458;-68
2022/10/06 00:33:59;;;;;;;8.45;2.50;;;;;;;12.16;76.96;101090.89;1643432;86;21050;-68
2022/10/06 00:36:29;;;;;;;7.80;2.50;;;;;;;12.16;76.65;101091.41;1639308;86;21134;-69
2022/10/06 00:38:59;;;;;;;9.10;2.52;;;;;;;12.17;76.40;101089.85;1637793;86;21099;-68
2022/10/06 00:41:30;;;;;;;5.95;2.50;;;;;;;12.19;76.19;101088.28;1638455;86;21447;-67
2022/10/06 00:43:59;;;;;;;5.83;2.30;;;;;;;12.18;76.13;101088.80;1644869;86;21091;-68
2022/10/06 00:46:44;;;;;;;6.47;2.40;;;;;;;12.18;76.11;101087.44;1642166;86;21063;-68
2022/10/06 00:49:22;;;;;;;4.87;2.30;;;;;;;12.18;76.04;101077.81;1638021;86;21099;-69
2022/10/06 00:52:00;;;;;;;7.80;2.62;;;;;;;12.17;75.96;101074.74;1643593;86;21106;-69
2022/10/06 00:54:30;;;;;;;6.30;2.42;;;;;;;12.16;75.94;101075.78;1637698;87;21067;-69
2022/10/06 00:57:02;;;;;;;7.37;2.40;;;;;;;12.16;75.90;101073.03;1611111;86;21500;-66
2022/10/06 00:59:31;;;;;;;5.35;2.50;;;;;;;12.16;75.89;101073.03;1637916;86;21047;-67
2022/10/06 01:02:17;;;;;;;5.25;2.47;;;;;;;12.16;76.08;101071.66;1654561;86;21081;-68
2022/10/06 01:04:54;;;;;;;6.10;2.10;;;;;;;12.16;76.15;101079.05;1638031;86;21424;-68
2022/10/06 01:07:26;;;;;;;4.67;2.20;;;;;;;12.13;76.42;101074.80;1637939;87;21059;-68
2022/10/06 01:09:57;;;;;;;6.50;2.50;;;;;;;12.10;76.69;101072.95;1638810;86;21071;-68
2022/10/06 01:12:28;;;;;;;4.78;2.27;;;;;;;12.07;76.80;101075.56;1653348;86;21455;-67
2022/10/06 01:14:59;;;;;;;4.30;2.30;;;;;;;12.06;76.81;101077.45;1638144;86;21151;-68
2022/10/06 01:17:50;;;;;;;6.15;2.33;;;;;;;12.04;76.95;101076.80;1641717;86;21085;-68
2022/10/06 01:20:19;;;;;;;8.23;2.47;;;;;;;12.03;77.18;101074.23;1647075;86;21075;-67
2022/10/06 01:23:04;;;;;;;4.60;2.22;;;;;;;12.02;77.38;101069.78;1652367;85;21129;-67
2022/10/06 01:25:34;;;;;;;4.85;2.30;;;;;;;11.99;77.57;101071.02;1645864;86;21092;-68
2022/10/06 01:28:06;;;;;;;5.78;2.60;;;;;;;11.95;77.65;101071.59;1639316;86;21102;-68
2022/10/06 01:30:41;;;;;;;5.03;2.40;;;;;;;11.90;77.82;101073.53;1608214;86;21105;-67
2022/10/06 01:33:12;;;;;;;6.40;2.50;;;;;;;11.86;77.91;101063.13;1632759;86;21544;-67
2022/10/06 01:35:43;;;;;;;7.12;2.90;;;;;;;11.82;78.10;101064.55;1627627;87;22220;-69
2022/10/06 01:38:12;;;;;;;8.50;2.95;;;;;;;11.73;78.37;101071.47;1632529;86;21494;-68
2022/10/06 01:40:41;;;;;;;4.70;2.40;;;;;;;11.69;78.60;101068.73;1638056;86;21100;-68
2022/10/06 01:43:12;;;;;;;4.53;2.40;;;;;;;11.65;78.91;101078.39;1637815;86;21069;-68
2022/10/06 01:45:43;;;;;;;4.55;2.37;;;;;;;11.61;79.16;101068.83;1638032;86;21141;-68
2022/10/06 01:48:12;;;;;;;5.67;2.55;;;;;;;11.59;79.28;101065.42;1645976;86;21127;-68
2022/10/06 01:50:43;;;;;;;5.87;3.08;;;;;;;11.56;79.41;101065.80;1646737;86;21076;-66
2022/10/06 01:53:13;;;;;;;7.92;2.98;;;;;;;11.54;79.49;101069.77;1652654;86;21055;-69
2022/10/06 01:55:45;;;;;;;8.18;3.10;;;;;;;11.49;79.63;101074.45;1639446;86;21111;-67
2022/10/06 01:58:16;;;;;;;3.72;2.42;;;;;;;11.48;79.85;101066.40;1637392;86;21047;-68
2022/10/06 02:00:46;;;;;;;6.78;2.60;;;;;;;11.43;80.04;101073.30;1637976;86;21087;-68
2022/10/06 02:03:17;;;;;;;10.00;2.77;;;;;;;11.41;80.22;101075.91;1637823;86;21083;-68
2022/10/06 02:05:46;;;;;;;5.00;2.42;;;;;;;11.39;80.31;101077.98;1639323;86;21047;-69
2022/10/06 02:08:18;;;;;;;8.63;2.70;;;;;;;11.37;80.46;101085.02;1627755;86;21099;-67
2022/10/06 02:10:49;;;;;;;4.58;2.60;;;;;;;11.37;80.52;101075.94;1644262;86;21077;-68
2022/10/06 02:13:26;;;;;;;5.60;2.62;;;;;;;11.37;80.51;101069.08;1641996;86;21016;-67
2022/10/06 02:15:59;;;;;;;7.78;2.62;;;;;;;11.35;80.47;101073.91;1654886;86;21053;-67
2022/10/06 02:18:29;;;;;;;6.75;2.85;;;;;;;11.31;80.48;101074.80;1638525;86;21518;-68
2022/10/06 02:20:59;;;;;;;5.22;2.85;;;;;;;11.26;80.60;101069.53;1645795;86;21078;-69
2022/10/06 02:23:29;;;;;;;5.85;3.10;;;;;;;11.22;80.72;101066.83;1652165;86;21110;-67
2022/10/06 02:26:04;;;;;;;5.33;3.10;;;;;;;11.15;80.79;101063.98;1621788;86;21329;-69
2022/10/06 02:28:34;;;;;;;5.58;2.80;;;;;;;11.06;80.92;101067.83;1646949;86;21130;-68
2022/10/06 02:31:07;;;;;;;6.65;2.90;;;;;;;10.98;81.24;101070.61;1656117;86;21110;-68
2022/10/06 02:33:39;;;;;;;8.50;3.40;;;;;;;10.93;81.42;101069.79;1650881;85;21114;-67
2022/10/06 02:36:11;;;;;;;8.80;4.03;;;;;;;10.88;81.65;101070.00;1651986;85;21108;-69
2022/10/06 02:38:42;;;;;;;7.90;3.67;;;;;;;10.80;81.95;101076.41;1645712;86;21067;-67
2022/10/06 02:41:12;;;;;;;6.25;3.47;;;;;;;10.76;82.32;101081.92;1645899;86;21019;-68
2022/10/06 02:43:41;;;;;;;6.67;3.40;;;;;;;10.73;82.55;101080.91;1642191;86;21083;-67
2022/10/06 02:46:12;;;;;;;6.85;3.17;;;;;;;10.70;82.69;101078.02;1645677;86;21082;-69
2022/10/06 02:48:43;;;;;;;5.83;3.22;;;;;;;10.67;82.80;101080.27;1645202;86;21083;-68
2022/10/06 02:51:15;;;;;;;5.87;3.30;;;;;;;10.64;83.01;101077.89;1657795;86;21582;-68
2022/10/06 02:53:46;;;;;;;7.65;3.47;;;;;;;10.60;83.18;101087.51;1645935;86;21110;-69
2022/10/06 02:56:21;;;;;;;9.08;3.62;;;;;;;10.53;83.41;101081.91;1656793;86;21064;-68
2022/10/06 02:58:51;;;;;;;10.55;3.52;;;;;;;10.46;83.53;101089.14;1646106;86;21740;-68
2022/10/06 03:01:29;;;;;;;9.23;3.98;;;;;;;10.39;83.83;101090.86;1644913;87;21074;-68
2022/10/06 03:04:03;;;;;;;9.08;4.03;;;;;;;10.39;84.00;101091.71;1645470;85;21136;-68
2022/10/06 03:06:32;;;;;;;16.07;4.53;;;;;;;10.37;84.21;101092.92;1655462;86;21067;-68
2022/10/06 03:09:10;;;;;;;9.18;4.08;;;;;;;10.31;84.38;101087.64;1635929;86;21102;-69
2022/10/06 03:11:41;;;;;;;8.65;4.03;;;;;;;10.30;84.50;101092.78;1653768;86;21017;-68
2022/10/06 03:14:12;;;;;;;6.15;3.95;;;;;;;10.29;84.60;101092.45;1636273;86;21112;-67
2022/10/06 03:16:44;;;;;;;11.08;4.62;;;;;;;10.27;84.72;101090.92;1646290;86;21102;-68
2022/10/06 03:19:15;;;;;;;11.83;4.03;;;;;;;10.22;84.75;101084.61;1636986;86;21099;-68
2022/10/06 03:21:45;;;;;;;5.80;3.58;;;;;;;10.17;84.83;101074.67;1646721;86;21134;-67
2022/10/06 03:24:16;;;;;;;6.75;3.85;;;;;;;10.16;84.99;101091.63;1645567;87;21050;-67
2022/10/06 03:26:47;;;;;;;7.05;3.58;;;;;;;10.15;85.04;101087.70;1645722;86;21063;-69
2022/10/06 03:29:17;;;;;;;6.50;3.37;;;;;;;10.10;85.17;101090.11;1652750;86;21464;-67
2022/10/06 03:31:49;;;;;;;8.25;3.77;;;;;;;10.09;85.36;101082.93;1649621;86;21051;-67
2022/10/06 03:34:19;;;;;;;6.78;4.00;;;;;;;10.04;85.30;101076.63;1645759;86;21203;-68
2022/10/06 03:36:50;;;;;;;8.58;4.25;;;;;;;10.00;85.42;101086.73;1645719;86;21126;-67
2022/10/06 03:39:22;;;;;;;13.80;5.10;;;;;;;9.96;85.54;101090.86;1653718;86;21057;-67
2022/10/06 03:41:51;;;;;;;7.33;4.72;;;;;;;9.94;85.70;101089.66;1661792;86;21068;-68
2022/10/06 03:44:23;;;;;;;6.92;4.35;;;;;;;9.93;85.80;101087.11;1647382;86;21131;-67
2022/10/06 03:46:52;;;;;;;7.92;4.00;;;;;;;9.94;85.94;101089.66;1645692;86;21066;-68
2022/10/06 03:49:22;;;;;;;8.53;4.35;;;;;;;9.95;85.96;101091.89;1646723;86;21067;-69
2022/10/06 03:51:53;;;;;;;11.15;5.47;;;;;;;9.94;86.08;101095.66;1656023;86;21021;-66
2022/10/06 03:54:25;;;;;;;10.10;3.90;;;;;;;9.94;86.15;101096.52;1647589;86;21015;-68
2022/10/06 03:56:54;;;;;;;6.40;3.33;;;;;;;9.95;86.26;101091.89;1646715;86;21059;-69
2022/10/06 03:59:24;;;;;;;5.70;3.33;;;;;;;9.94;86.18;101093.77;1651937;86;21043;-69
2022/10/06 04:01:54;;;;;;;5.62;3.27;;;;;;;9.97;86.26;101092.56;1645557;86;21035;-69
2022/10/06 04:04:27;;;;;;;6.37;3.50;;;;;;;9.95;86.12;101092.74;1645619;86;21125;-68
2022/10/06 04:07:00;;;;;;;6.47;3.62;;;;;;;9.92;86.19;101087.62;1645142;86;21047;-68
2022/10/06 04:09:30;;;;;;;6.25;3.80;;;;;;;9.90;86.19;101091.05;1648200;86;21110;-68
2022/10/06 04:12:01;;;;;;;8.63;3.52;;;;;;;9.90;86.21;101090.19;1645953;86;21058;-69
2022/10/06 04:14:31;;;;;;;11.83;3.87;;;;;;;9.90;86.19;101094.30;1646056;86;21055;-69
2022/10/06 04:17:01;;;;;;;6.05;3.58;;;;;;;9.90;86.08;101104.73;1635753;86;21102;-68
2022/10/06 04:19:34;;;;;;;9.18;4.33;;;;;;;9.90;86.11;101102.52;1644226;86;21515;-68
2022/10/06 04:22:04;;;;;;;8.65;4.30;;;;;;;9.89;86.04;101098.06;1629406;86;21060;-70
2022/10/06 04:24:34;;;;;;;8.03;4.10;;;;;;;9.88;86.08;101099.95;1637979;86;21055;-66
2022/10/06 04:29:55;;;;;;;9.55;4.45;;;;;;;9.84;86.18;101109.55;1643279;86;21087;-69
2022/10/06 04:32:28;;;;;;;12.68;4.58;;;;;;;9.85;86.30;101107.14;1637970;86;21087;-68
2022/10/06 04:34:58;;;;;;;15.53;5.47;;;;;;;9.89;86.41;101114.49;1646132;86;21055;-67
2022/10/06 04:37:28;;;;;;;9.70;4.92;;;;;;;9.90;86.55;101112.09;1637792;86;21186;-67
2022/10/06 04:40:00;;;;;;;12.78;5.75;;;;;;;9.94;86.64;101109.34;1637903;86;21095;-69
2022/10/06 04:42:30;;;;;;;11.28;4.92;;;;;;;9.96;86.55;101113.61;1637833;86;21474;-68
2022/10/06 04:45:01;;;;;;;14.18;4.70;;;;;;;9.98;86.43;101120.28;1637565;86;21064;-68
2022/10/06 04:47:32;;;;;;;8.25;4.12;;;;;;;9.95;86.29;101112.42;1638141;86;21068;-68
2022/10/06 04:50:03;;;;;;;9.30;4.33;;;;;;;9.91;86.23;101109.18;1638022;86;21489;-66
2022/10/06 04:52:34;;;;;;;9.23;4.85;;;;;;;9.91;86.35;101117.39;1639440;85;21056;-68
2022/10/06 04:55:05;;;;;;;16.60;11.22;;;;;;;9.92;86.39;101117.73;1639673;86;21186;-68
2022/10/06 04:57:35;;;;;;;14.60;6.12;;;;;;;9.93;86.47;101118.59;1643307;86;21043;-67
2022/10/06 05:00:25;;;;;;;13.10;4.53;;;;;;;9.95;86.57;101120.63;1638022;86;21507;-68
2022/10/06 05:02:55;;;;;;;8.55;4.15;;;;;;;9.97;86.63;101117.20;1645663;86;21059;-69
2022/10/06 05:05:25;;;;;;;10.38;4.03;;;;;;;10.01;86.67;101119.41;1638005;86;21099;-67
2022/10/06 05:07:57;;;;;;;10.93;4.60;;;;;;;10.07;86.70;101116.48;1638012;86;21146;-68
2022/10/06 05:10:28;;;;;;;12.10;4.35;;;;;;;10.12;86.63;101123.65;1647165;86;21090;-67
2022/10/06 05:12:58;;;;;;;10.85;4.53;;;;;;;10.16;86.47;101123.63;1638066;86;21102;-68
2022/10/06 05:15:29;;;;;;;14.93;4.90;;;;;;;10.21;86.32;101119.88;1639541;86;21085;-67
2022/10/06 05:17:59;;;;;;;11.85;5.50;;;;;;;10.26;86.15;101128.41;1641546;86;21016;-68
2022/10/06 05:20:29;;;;;;;9.55;4.70;;;;;;;10.30;86.01;101122.92;1638443;86;21134;-67
2022/10/06 05:23:01;;;;;;;8.35;3.98;;;;;;;10.35;85.85;101125.13;1641810;86;21569;-66
2022/10/06 05:25:31;;;;;;;11.60;4.30;;;;;;;10.39;85.73;101110.89;1627544;86;21100;-67
2022/10/06 05:28:01;;;;;;;16.05;3.87;;;;;;;10.44;85.48;101114.49;1637921;86;21051;-67
2022/10/06 05:30:31;;;;;;;10.43;3.47;;;;;;;10.48;85.26;101118.06;1637946;86;21063;-68
2022/10/06 05:33:01;;;;;;;8.40;3.95;;;;;;;10.52;85.06;101119.08;1638146;86;21051;-66
2022/10/06 05:35:32;;;;;;;11.15;4.22;;;;;;;10.55;84.92;101120.08;1639223;86;21119;-66
2022/10/06 05:38:04;;;;;;;12.53;4.55;;;;;;;10.59;84.80;101126.39;1587713;88;21165;-69
2022/10/06 05:40:35;;;;;;;13.55;4.62;;;;;;;10.63;84.76;101130.48;1579097;90;21168;-67
2022/10/06 05:43:04;;;;;;;10.72;3.98;;;;;;;10.65;84.57;101133.89;1579136;89;21149;-69
2022/10/06 05:45:34;;;;;;;10.15;4.40;;;;;;;10.67;84.36;101130.45;1597774;90;21062;-67
2022/10/06 05:48:05;;;;;;;9.83;4.22;;;;;;;10.70;84.25;101131.47;1599887;90;21058;-66
2022/10/06 05:50:36;;;;;;;8.73;4.20;;;;;;;10.74;84.09;101124.59;1599668;90;21486;-67
2022/10/06 05:53:06;;;;;;;11.18;4.30;;;;;;;10.78;84.04;101126.45;1600073;88;21066;-69
2022/10/06 05:55:36;;;;;;;11.20;4.95;;;;;;;10.80;83.90;101126.60;1599069;86;21070;-68
2022/10/06 05:58:07;;;;;;;8.10;4.03;;;;;;;10.86;83.73;101130.50;1638037;86;21091;-68
2022/10/06 06:00:36;;;;;;;10.60;3.92;;;;;;;10.91;83.42;101132.18;1637995;86;21059;-66
2022/10/06 06:03:08;;;;;;;8.33;3.40;;;;;;;10.95;83.08;101134.89;1638009;86;21071;-67
2022/10/06 06:05:42;;;;;;;13.20;3.70;;;;;;;11.02;82.69;101135.88;1639658;86;21027;-67
2022/10/06 06:08:11;;;;;;;9.73;3.85;;;;;;;11.10;82.40;101134.99;1651594;86;21511;-68
2022/10/06 06:10:41;;;;;;;14.53;5.22;;;;;;;11.18;82.06;101134.07;1637909;86;21067;-68
2022/10/06 06:13:10;;;;;;;10.08;3.92;;;;;;;11.25;81.71;101135.04;1637986;86;21557;-68
2022/10/06 06:16:00;;;;;;;10.05;4.28;;;;;;;11.31;81.49;101132.41;1636206;86;21490;-68
2022/10/06 06:18:32;;;;;;;8.70;3.55;;;;;;;11.38;80.88;101135.27;1652986;86;21512;-68
2022/10/06 06:21:07;;;;;;;10.03;3.10;;;;;;;11.45;80.37;101136.23;1636545;85;21085;-68
2022/10/06 06:23:40;;;;;;;10.35;3.67;;;;;;;11.52;79.72;101131.70;1661224;86;21073;-70
2022/10/06 06:26:16;;;;;;;7.22;3.50;;;;;;;11.59;79.10;101132.67;1656478;86;21045;-66
2022/10/06 06:28:49;;;;;;;10.38;3.72;;;;;;;11.66;78.63;101136.37;1661578;86;21065;-68
2022/10/06 06:31:28;;;;;;;9.03;3.00;;;;;;;11.74;78.14;101138.21;1656874;86;21095;-67
2022/10/06 06:34:05;;;;;;;10.95;3.37;;;;;;;11.80;77.69;101127.88;1645682;86;21087;-68
2022/10/06 06:36:40;;;;;;;6.58;3.22;;;;;;;11.86;77.40;101137.27;1646140;86;21059;-69
2022/10/06 06:39:13;;;;;;;8.15;3.10;;;;;;;11.89;76.94;101139.63;1636160;87;21026;-69
2022/10/06 06:41:45;;;;;;;10.45;3.60;;;;;;;11.97;76.13;101135.42;1659049;85;21050;-68
2022/10/06 06:44:17;;;;;;;10.18;3.70;;;;;;;12.05;75.62;101129.84;1621672;86;21061;-68
2022/10/06 06:46:52;;;;;;;9.98;3.00;;;;;;;12.10;75.33;101136.13;1654134;86;21098;-68
2022/10/06 06:49:22;;;;;;;15.38;3.92;;;;;;;12.14;75.02;101135.56;1645567;87;21019;-68
2022/10/06 06:51:53;;;;;;;9.00;3.60;;;;;;;12.18;74.70;101137.41;1645431;86;21055;-67
2022/10/06 06:54:26;;;;;;;11.33;4.05;;;;;;;12.23;74.29;101138.55;1657673;86;21022;-68
2022/10/06 06:56:59;;;;;;;11.50;4.15;;;;;;;12.29;73.98;101135.03;1645125;86;21139;-69
2022/10/06 06:59:32;;;;;;;12.07;4.70;;;;;;;12.34;73.82;101131.19;1649434;86;21089;-68
2022/10/06 07:02:02;;;;;;;14.95;4.62;;;;;;;12.37;73.71;101134.95;1647094;86;21091;-67
2022/10/06 07:04:36;;;;;;;19.05;5.67;;;;;;;12.43;73.54;101129.73;1661484;85;21045;-67
2022/10/06 07:07:06;;;;;;;14.47;4.37;;;;;;;12.48;73.14;101130.87;1660424;86;21049;-68
2022/10/06 07:09:38;;;;;;;17.70;5.42;;;;;;;12.52;73.22;101128.59;1645950;86;21090;-68
2022/10/06 07:12:13;;;;;;;18.17;4.65;;;;;;;12.55;72.11;101131.80;1645711;86;21070;-68
2022/10/06 07:26:06;;;;;;;14.43;4.58;;;;;;;12.81;72.03;101128.50;1630995;86;21490;-68
2022/10/06 07:28:36;;;;;;;9.60;3.22;;;;;;;12.84;72.31;101132.24;1630980;87;21067;-68
2022/10/06 07:31:08;;;;;;;9.73;3.45;;;;;;;12.87;72.30;101124.98;1631060;87;21036;-68
2022/10/06 07:33:40;;;;;;;6.08;2.62;;;;;;;12.92;72.24;101124.39;1630835;86;21063;-66
2022/10/06 07:36:10;;;;;;;6.42;2.90;;;;;;;12.98;71.93;101126.36;1631075;87;21084;-70
2022/10/06 07:38:41;;;;;;;11.53;3.92;;;;;;;13.03;71.70;101119.78;1634269;86;21634;-67
2022/10/06 07:41:11;;;;;;;7.45;2.98;;;;;;;13.10;71.83;101119.31;1642617;87;21058;-69
2022/10/06 07:43:45;;;;;;;5.65;2.55;;;;;;;13.18;71.87;101122.49;1621513;87;21468;-67
2022/10/06 07:46:17;;;;;;;6.55;2.90;;;;;;;13.35;71.72;101122.55;1630854;86;21499;-68
2022/10/06 07:48:49;;;;;;;7.97;2.85;;;;;;;13.75;71.17;101124.27;1630970;86;21070;-68
2022/10/06 07:51:19;;;;;;;7.72;2.92;;;;;;;14.27;69.81;101120.98;1638523;87;21100;-68
2022/10/06 07:53:52;;;;;;;9.35;3.27;;;;;;;14.74;68.22;101116.57;1632441;87;21065;-68
2022/10/06 07:56:34;;;;;;;6.28;2.90;;;;;;;15.18;67.19;101116.06;1630230;86;21128;-69
2022/10/06 07:59:03;;;;;;;8.33;3.10;;;;;;;15.77;65.94;101110.59;1638408;87;21472;-67
2022/10/06 08:01:34;;;;;;;8.95;2.87;;;;;;;16.36;63.36;101110.16;1576852;90;21117;-68
2022/10/06 08:04:05;;;;;;;6.15;3.40;;;;;;;16.80;62.01;101102.42;1582537;90;21527;-68
2022/10/06 08:06:35;;;;;;;8.08;3.27;;;;;;;17.17;60.06;101102.11;1583990;90;21214;-68
2022/10/06 08:09:04;;;;;;;6.25;3.30;;;;;;;17.54;59.06;101097.55;1586675;90;21237;-68
2022/10/06 08:11:35;;;;;;;7.70;3.08;;;;;;;18.02;57.35;101100.55;1577318;89;21101;-69
2022/10/06 08:14:04;;;;;;;11.03;3.85;;;;;;;18.40;56.19;101100.89;1586181;90;21066;-67
2022/10/06 08:16:34;;;;;;;9.20;3.80;;;;;;;18.71;55.31;101096.27;1584465;90;21121;-67
2022/10/06 08:19:04;;;;;;;13.22;3.87;;;;;;;18.90;54.50;101100.18;1580289;90;21117;-66
2022/10/06 08:21:37;;;;;;;6.83;3.42;;;;;;;19.05;53.90;101097.52;1585580;88;21112;-67
2022/10/06 08:24:09;;;;;;;7.70;2.92;;;;;;;19.25;53.85;101094.73;1598991;88;21423;-68
2022/10/06 08:26:38;;;;;;;11.12;3.50;;;;;;;19.50;52.55;101088.97;1621242;86;21063;-68
2022/10/06 08:29:08;;;;;;;5.10;3.17;;;;;;;19.65;51.65;101088.56;1637814;86;21074;-67
2022/10/06 08:31:37;;;;;;;13.22;4.22;;;;;;;19.59;51.41;101091.77;1637839;86;21051;-68
2022/10/06 08:34:07;;;;;;;6.97;3.58;;;;;;;19.47;51.63;101087.22;1649911;86;21069;-68
2022/10/06 08:36:38;;;;;;;8.65;4.92;;;;;;;19.38;51.88;101086.72;1640981;86;21119;-67
2022/10/06 08:39:10;;;;;;;9.65;3.92;;;;;;;19.30;51.53;101078.19;1635593;86;21087;-68
2022/10/06 08:41:49;;;;;;;8.70;3.40;;;;;;;19.12;51.44;101079.66;1637809;86;21147;-68
2022/10/06 08:44:36;;;;;;;7.28;3.45;;;;;;;18.91;51.70;101076.03;1634444;86;21037;-65
2022/10/06 08:47:21;;;;;;;4.75;2.98;;;;;;;18.66;51.98;101077.53;1637785;86;21463;-68
2022/10/06 08:49:53;;;;;;;5.92;2.83;;;;;;;18.41;52.51;101083.17;1634837;86;21541;-68
2022/10/06 08:52:56;;;;;;;7.53;3.17;;;;;;;18.19;52.74;101077.75;1645501;86;21087;-67
2022/10/06 08:55:48;;;;;;;8.80;3.33;;;;;;;18.00;52.72;101081.91;1638339;86;21079;-69
2022/10/06 08:58:32;;;;;;;7.78;2.55;;;;;;;17.76;52.95;101072.25;1637855;86;21145;-63
2022/10/06 09:01:18;;;;;;;4.50;2.65;;;;;;;17.61;54.06;101076.73;1646991;86;21047;-61
2022/10/06 09:03:50;;;;;;;5.12;2.95;;;;;;;17.54;54.61;101072.61;1638346;86;21027;-62
2022/10/06 09:06:50;;;;;;;6.53;2.92;;;;;;;17.48;55.11;101068.52;1637265;86;21088;-63
2022/10/06 09:09:53;;;;;;;5.08;2.90;;;;;;;17.47;55.76;101069.59;1604483;86;21031;-64
2022/10/06 09:12:35;;;;;;;5.35;2.75;;;;;;;17.45;55.68;101076.74;1627897;86;21047;-68
2022/10/06 09:15:18;;;;;;;7.67;3.12;;;;;;;17.41;55.25;101071.34;1638252;86;21024;-68
2022/10/06 09:17:53;;;;;;;6.22;2.92;;;;;;;17.36;55.32;101073.41;1656986;85;21501;-69
2022/10/06 09:20:42;;;;;;;7.50;2.80;;;;;;;17.32;55.40;101072.16;1637814;86;21447;-68
2022/10/06 09:23:15;;;;;;;7.72;2.87;;;;;;;17.29;55.89;101069.84;1645460;86;21110;-67
2022/10/06 09:25:45;;;;;;;6.30;2.90;;;;;;;17.28;56.32;101069.53;1625022;88;21070;-68
2022/10/06 09:28:14;;;;;;;7.75;3.10;;;;;;;17.30;56.36;101071.54;1628554;86;21515;-68
2022/10/06 09:30:45;;;;;;;4.58;2.98;;;;;;;17.30;56.10;101077.63;1645559;86;21075;-68
2022/10/06 09:33:18;;;;;;;8.00;3.45;;;;;;;17.31;56.39;101077.93;1646003;86;21126;-70
2022/10/06 09:36:11;;;;;;;7.78;2.75;;;;;;;17.33;56.51;101074.40;1650429;86;21071;-69
2022/10/06 09:38:52;;;;;;;9.08;3.05;;;;;;;17.36;56.16;101069.25;1636011;86;21118;-68
2022/10/06 09:41:39;;;;;;;5.58;2.45;;;;;;;17.38;56.22;101068.48;1651777;86;21094;-67
2022/10/06 09:44:26;;;;;;;7.15;2.60;;;;;;;17.43;55.74;101070.58;1645715;86;21098;-69
2022/10/06 09:46:55;;;;;;;5.55;2.83;;;;;;;17.43;55.41;101066.42;1645477;86;21078;-67
2022/10/06 09:49:30;;;;;;;4.28;2.50;;;;;;;17.44;55.39;101068.97;1646361;86;21121;-68
2022/10/06 09:52:14;;;;;;;5.75;2.80;;;;;;;17.45;55.25;101062.89;1650172;86;21078;-67
2022/10/06 09:54:47;;;;;;;5.45;2.62;;;;;;;17.47;54.91;101066.82;1645713;86;21054;-68
2022/10/06 09:57:23;;;;;;;4.53;2.52;;;;;;;17.50;55.17;101073.29;1631397;87;21482;-69
2022/10/06 09:59:52;;;;;;;4.72;2.70;;;;;;;17.51;55.08;101070.83;1645860;86;21019;-68
2022/10/06 10:02:38;;;;;;;4.28;2.80;;;;;;;17.52;54.83;101069.22;1651929;86;21092;-68
2022/10/06 10:05:19;;;;;;;7.83;2.85;;;;;;;17.55;54.92;101067.91;1645793;86;21031;-69
2022/10/06 10:08:08;;;;;;;6.65;2.67;;;;;;;17.63;54.51;101066.27;1661242;85;21037;-70
2022/10/06 10:10:38;;;;;;;6.53;2.65;;;;;;;17.66;54.40;101067.20;1630742;87;21070;-69
2022/10/06 10:13:24;;;;;;;8.35;3.00;;;;;;;17.67;54.06;101070.31;1649980;86;21653;-70
2022/10/06 10:15:59;;;;;;;7.03;2.90;;;;;;;17.68;53.76;101070.09;1635500;86;22090;-68
2022/10/06 10:18:30;;;;;;;8.93;3.50;;;;;;;17.70;54.04;101062.39;1658858;85;21128;-68
2022/10/06 10:21:07;;;;;;;7.42;2.50;;;;;;;17.72;54.19;101062.16;1658163;86;21094;-69
2022/10/06 10:23:38;;;;;;;6.80;2.60;;;;;;;17.71;54.13;101059.08;1643638;86;21063;-69
2022/10/06 10:26:39;;;;;;;5.67;3.00;;;;;;;17.74;53.98;101053.08;1648727;86;21470;-68
2022/10/06 10:29:44;;;;;;;5.65;2.85;;;;;;;17.79;53.75;101054.63;1634456;86;21138;-69
2022/10/06 10:32:18;;;;;;;5.87;2.50;;;;;;;17.85;53.39;101059.25;1643078;86;21127;-70
2022/10/06 10:35:24;;;;;;;5.03;2.50;;;;;;;17.89;53.10;101059.10;1643832;85;21047;-68
2022/10/06 10:38:10;;;;;;;5.35;2.77;;;;;;;17.90;53.12;101062.19;1651812;86;21106;-69
2022/10/06 10:40:47;;;;;;;4.45;2.72;;;;;;;17.91;52.85;101048.62;1642991;86;21110;-68
2022/10/06 10:43:39;;;;;;;5.35;2.47;;;;;;;17.93;52.78;101043.70;1642778;86;21102;-68
2022/10/06 10:46:36;;;;;;;8.40;2.83;;;;;;;17.96;52.58;101050.17;1646088;86;21475;-67
2022/10/06 10:49:19;;;;;;;5.20;2.73;;;;;;;17.97;51.47;101043.55;1650449;86;21055;-69
2022/10/06 10:52:12;;;;;;;7.25;3.10;;;;;;;18.00;51.23;101042.23;1643522;86;21079;-66
2022/10/06 10:55:26;;;;;;;10.23;3.33;;;;;;;18.03;51.33;101039.84;1649774;86;21071;-70
2022/10/06 10:58:04;;;;;;;4.22;2.30;;;;;;;18.06;51.55;101044.94;1650104;86;21540;-70
2022/10/06 11:00:35;;;;;;;7.05;2.40;;;;;;;18.08;51.56;101029.98;1637809;86;21047;-68
2022/10/06 11:03:05;;;;;;;4.83;2.40;;;;;;;18.09;51.73;101031.68;1649951;86;21087;-69
2022/10/06 11:05:58;;;;;;;4.30;2.70;;;;;;;18.09;51.71;101040.00;1642724;86;21150;-68
2022/10/06 11:09:01;;;;;;;5.78;2.50;;;;;;;18.12;51.51;101036.77;1643302;86;21497;-67
2022/10/06 11:11:53;;;;;;;5.92;2.98;;;;;;;18.15;51.19;101037.69;1614761;87;21061;-68
2022/10/06 11:14:33;;;;;;;3.50;2.35;;;;;;;18.16;50.77;101028.28;1642828;86;21102;-68
2022/10/06 11:17:43;;;;;;;4.95;2.77;;;;;;;18.17;50.97;101030.83;1649943;86;21040;-68
2022/10/06 11:20:40;;;;;;;6.47;2.62;;;;;;;18.19;51.52;101030.06;1659428;85;21055;-68
2022/10/06 11:23:48;;;;;;;5.20;2.47;;;;;;;18.21;51.34;101020.15;1609171;88;21117;-69
2022/10/06 11:26:49;;;;;;;3.98;2.22;;;;;;;18.26;51.17;101019.75;1599302;89;21118;-69
2022/10/06 11:29:49;;;;;;;5.28;2.50;;;;;;;18.31;51.12;101020.44;1637712;86;21094;-69
2022/10/06 11:32:52;;;;;;;4.08;2.72;;;;;;;18.34;50.93;101015.81;1639102;86;21115;-68
2022/10/06 11:35:29;;;;;;;4.92;2.40;;;;;;;18.36;50.74;101007.56;1638740;86;21123;-68
2022/10/06 11:38:04;;;;;;;6.80;2.80;;;;;;;18.42;50.66;101007.16;1637895;86;21086;-68
2022/10/06 11:40:49;;;;;;;6.53;3.17;;;;;;;18.44;50.85;101007.77;1627086;86;21043;-67
2022/10/06 11:43:59;;;;;;;4.40;2.65;;;;;;;18.44;50.74;101023.03;1638544;86;21096;-68
2022/10/06 11:46:41;;;;;;;6.35;2.77;;;;;;;18.44;50.80;101013.33;1647160;86;21091;-69
2022/10/06 11:49:54;;;;;;;4.08;2.70;;;;;;;18.47;50.21;101014.24;1637511;86;21055;-68
2022/10/06 11:52:27;;;;;;;4.83;2.50;;;;;;;18.49;50.41;101011.23;1635066;86;21099;-68
2022/10/06 11:55:09;;;;;;;4.92;2.77;;;;;;;18.50;50.35;101004.59;1643123;86;21105;-70
2022/10/06 11:58:08;;;;;;;5.12;2.45;;;;;;;18.50;50.42;101005.45;1625623;86;21112;-66
2022/10/06 12:00:43;;;;;;;12.58;3.65;;;;;;;18.52;50.54;101008.83;1636897;86;21059;-70
2022/10/06 12:03:33;;;;;;;7.83;3.20;;;;;;;18.56;50.20;101004.50;1637613;86;21051;-69
2022/10/06 12:06:03;;;;;;;5.20;2.98;;;;;;;18.59;50.12;101006.81;1631667;86;21529;-70
2022/10/06 12:08:40;;;;;;;5.15;2.87;;;;;;;18.65;49.64;101006.44;1657668;86;21049;-69
2022/10/06 12:11:36;;;;;;;8.78;2.80;;;;;;;18.71;49.31;101003.26;1642496;86;21070;-69
2022/10/06 12:14:10;;;;;;;6.25;2.75;;;;;;;18.75;49.50;101004.47;1579668;87;21073;-66
2022/10/06 12:16:42;;;;;;;4.20;2.70;;;;;;;18.77;49.42;101005.09;1649156;86;21093;-68